createdAt,value
2023-05-10T00:01:14.487Z,56.51
2023-05-10T00:03:41.412Z,56.63
2023-05-10T00:06:08.044Z,56.51
2023-05-10T00:08:34.628Z,56.08
2023-05-10T00:11:01.272Z,56.62
2023-05-10T00:13:27.896Z,56.66
2023-05-10T00:15:54.563Z,56.84
2023-05-10T00:18:21.146Z,56.89
2023-05-10T00:20:47.862Z,57.57
2023-05-10T00:23:14.433Z,57.13
2023-05-10T00:25:41.062Z,56.80
2023-05-10T00:28:07.643Z,57.05
2023-05-10T00:30:34.184Z,57.12
2023-05-10T00:33:02.012Z,57.04
2023-05-10T00:35:28.584Z,56.70
2023-05-10T00:37:55.426Z,56.57
2023-05-10T00:40:21.969Z,56.99
2023-05-10T00:42:53.265Z,57.22
2023-05-10T00:45:20.149Z,57.01
2023-05-10T00:47:46.939Z,56.69
2023-05-10T00:50:14.668Z,56.56
2023-05-10T00:52:42.584Z,56.61
2023-05-10T00:55:13.056Z,56.92
2023-05-10T00:57:39.879Z,57.23
2023-05-10T01:00:07.016Z,56.77
2023-05-10T01:02:35.322Z,56.70
2023-05-10T01:05:04.445Z,57.01
2023-05-10T01:07:31.008Z,56.68
2023-05-10T01:09:58.474Z,56.72
2023-05-10T01:12:25.225Z,56.81
2023-05-10T01:14:52.154Z,56.97
2023-05-10T01:17:19.140Z,56.77
2023-05-10T01:19:45.724Z,56.63
2023-05-10T01:22:24.496Z,56.43
2023-05-10T01:25:20.886Z,56.56
2023-05-10T01:28:15.441Z,56.47
2023-05-10T01:31:22.885Z,56.15
2023-05-10T01:34:08.930Z,56.27
2023-05-10T01:36:52.213Z,56.60
2023-05-10T01:39:43.789Z,56.49
2023-05-10T01:42:20.787Z,56.09
2023-05-10T01:44:54.715Z,56.08
2023-05-10T01:47:31.842Z,56.38
2023-05-10T01:50:03.783Z,56.46
2023-05-10T01:52:38.793Z,55.96
2023-05-10T01:55:17.478Z,56.37
2023-05-10T01:57:47.382Z,56.04
2023-05-10T02:00:16.145Z,55.60
2023-05-10T02:02:46.749Z,56.01
2023-05-10T02:05:16.175Z,55.96
2023-05-10T02:07:44.053Z,56.17
2023-05-10T02:10:12.467Z,55.95
2023-05-10T02:12:43.158Z,56.20
2023-05-10T02:15:12.542Z,56.41
2023-05-10T02:17:40.580Z,56.55
2023-05-10T02:20:08.744Z,56.49
2023-05-10T02:22:37.539Z,56.56
2023-05-10T02:25:05.038Z,56.51
2023-05-10T02:27:32.276Z,56.64
2023-05-10T02:29:59.471Z,56.41
2023-05-10T02:32:28.172Z,56.19
2023-05-10T02:34:56.517Z,56.19
2023-05-10T02:37:23.465Z,56.03
2023-05-10T02:39:52.989Z,56.37
2023-05-10T02:42:23.632Z,56.64
2023-05-10T02:44:53.754Z,56.83
2023-05-10T02:47:20.844Z,56.56
2023-05-10T02:49:49.221Z,56.45
2023-05-10T02:52:24.080Z,56.26
2023-05-10T02:54:55.313Z,56.54
2023-05-10T02:57:28.544Z,56.71
2023-05-10T02:59:55.572Z,56.40
2023-05-10T03:02:22.345Z,56.12
2023-05-10T03:04:49.007Z,56.40
2023-05-10T03:07:16.132Z,56.62
2023-05-10T03:09:43.394Z,56.63
2023-05-10T03:12:28.183Z,56.41
2023-05-10T03:14:57.269Z,56.81
2023-05-10T03:17:35.801Z,56.77
2023-05-10T03:20:10.725Z,56.48
2023-05-10T03:22:48.852Z,56.79
2023-05-10T03:25:17.556Z,56.33
2023-05-10T03:27:46.207Z,56.86
2023-05-10T03:30:14.012Z,56.28
2023-05-10T03:32:41.705Z,56.56
2023-05-10T03:35:09.952Z,56.84
2023-05-10T03:37:37.486Z,56.99
2023-05-10T03:40:04.733Z,56.20
2023-05-10T03:42:33.784Z,57.33
2023-05-10T03:45:00.330Z,57.04
2023-05-10T03:47:27.045Z,57.03
2023-05-10T03:49:53.669Z,56.82
2023-05-10T03:52:20.306Z,56.60
2023-05-10T03:54:47.271Z,56.64
2023-05-10T03:57:13.797Z,56.71
2023-05-10T03:59:40.309Z,57.12
2023-05-10T04:02:06.960Z,56.97
2023-05-10T04:04:33.503Z,57.26
2023-05-10T04:07:00.231Z,56.70
2023-05-10T04:09:26.882Z,56.99
2023-05-10T04:11:53.444Z,57.67
2023-05-10T04:14:19.982Z,57.42
2023-05-10T04:16:46.591Z,56.97
2023-05-10T04:19:13.177Z,57.19
2023-05-10T04:21:39.690Z,56.98
2023-05-10T04:24:06.413Z,56.91
2023-05-10T04:26:32.942Z,57.07
2023-05-10T04:28:59.508Z,57.21
2023-05-10T04:31:26.987Z,56.75
2023-05-10T04:33:53.862Z,57.17
2023-05-10T04:36:20.527Z,57.25
2023-05-10T04:38:47.046Z,58.05
2023-05-10T04:41:13.696Z,57.25
2023-05-10T04:43:40.244Z,57.30
2023-05-10T04:46:08.227Z,57.67
2023-05-10T04:48:34.971Z,56.91
2023-05-10T04:51:01.804Z,56.90
2023-05-10T04:53:28.398Z,57.09
2023-05-10T04:55:54.982Z,57.19
2023-05-10T04:58:21.824Z,57.10
2023-05-10T05:00:48.373Z,56.87
2023-05-10T05:03:14.958Z,56.97
2023-05-10T05:05:41.534Z,57.01
2023-05-10T05:08:08.077Z,57.16
2023-05-10T05:10:34.637Z,56.78
2023-05-10T05:13:01.263Z,57.11
2023-05-10T05:15:28.369Z,56.79
2023-05-10T05:17:54.915Z,56.73
2023-05-10T05:20:21.561Z,56.29
2023-05-10T05:22:50.600Z,57.11
2023-05-10T05:25:17.450Z,57.60
2023-05-10T05:27:43.972Z,56.99
2023-05-10T05:30:10.962Z,57.13
2023-05-10T05:32:37.537Z,57.40
2023-05-10T05:35:04.325Z,58.75
2023-05-10T05:37:30.857Z,57.35
2023-05-10T05:39:57.978Z,57.40
2023-05-10T05:42:24.568Z,57.42
2023-05-10T05:44:51.140Z,57.66
2023-05-10T05:47:18.397Z,57.30
2023-05-10T05:49:46.790Z,57.84
2023-05-10T05:52:13.678Z,57.40
2023-05-10T05:54:40.645Z,56.91
2023-05-10T05:57:07.633Z,56.95
2023-05-10T05:59:34.307Z,56.70
2023-05-10T06:02:01.561Z,57.15
2023-05-10T06:04:28.317Z,56.74
2023-05-10T06:06:54.930Z,57.14
2023-05-10T06:09:21.587Z,57.78
2023-05-10T06:11:48.149Z,57.46
2023-05-10T06:14:14.826Z,57.25
2023-05-10T06:16:41.549Z,57.27
2023-05-10T06:19:08.278Z,56.90
2023-05-10T06:21:34.828Z,57.12
2023-05-10T06:24:01.411Z,57.27
2023-05-10T06:26:27.985Z,57.19
2023-05-10T06:28:54.524Z,56.90
2023-05-10T06:31:21.052Z,57.14
2023-05-10T06:33:47.811Z,56.77
2023-05-10T06:36:14.410Z,56.77
2023-05-10T06:38:41.059Z,56.84
2023-05-10T06:41:07.688Z,56.51
2023-05-10T06:43:34.192Z,57.06
2023-05-10T06:46:00.767Z,56.60
2023-05-10T06:48:27.594Z,56.77
2023-05-10T06:50:54.203Z,56.51
2023-05-10T06:53:20.762Z,55.83
2023-05-10T06:55:47.461Z,56.51
2023-05-10T06:58:14.035Z,56.77
2023-05-10T07:00:41.553Z,56.39
2023-05-10T07:03:08.316Z,56.93
2023-05-10T07:05:35.130Z,57.22
2023-05-10T07:08:02.042Z,57.43
2023-05-10T07:10:28.623Z,56.18
2023-05-10T07:12:55.289Z,55.51
2023-05-10T07:15:21.971Z,55.31
2023-05-10T07:17:48.587Z,55.01
2023-05-10T07:20:15.402Z,54.37
2023-05-10T07:22:42.017Z,54.37
2023-05-10T07:25:08.719Z,54.79
2023-05-10T07:27:35.501Z,54.08
2023-05-10T07:30:02.520Z,53.44
2023-05-10T07:32:29.268Z,52.89
2023-05-10T07:34:56.026Z,53.22
2023-05-10T07:37:22.633Z,53.31
2023-05-10T07:39:49.155Z,53.61
2023-05-10T07:42:15.691Z,53.29
2023-05-10T07:44:42.739Z,52.70
2023-05-10T07:47:09.372Z,52.69
2023-05-10T07:49:36.662Z,52.06
2023-05-10T07:52:04.255Z,52.12
2023-05-10T07:54:31.034Z,51.64
2023-05-10T07:56:57.608Z,51.47
2023-05-10T07:59:24.157Z,51.24
2023-05-10T08:01:50.795Z,50.98
2023-05-10T08:04:17.354Z,50.84
2023-05-10T08:06:43.930Z,50.32
2023-05-10T08:09:10.606Z,51.05
2023-05-10T08:11:37.297Z,50.71
2023-05-10T08:14:03.902Z,49.72
2023-05-10T08:16:30.536Z,50.18
2023-05-10T08:18:57.235Z,50.25
2023-05-10T08:21:23.853Z,50.94
2023-05-10T08:23:50.595Z,50.06
2023-05-10T08:26:17.199Z,50.02
2023-05-10T08:28:43.716Z,49.32
2023-05-10T08:31:10.329Z,48.16
2023-05-10T08:33:36.880Z,47.72
2023-05-10T08:36:03.477Z,48.42
2023-05-10T08:38:30.068Z,47.44
2023-05-10T08:41:00.068Z,48.45
2023-05-10T08:43:29.929Z,48.77
2023-05-10T08:45:57.938Z,48.27
2023-05-10T08:48:25.797Z,49.50
2023-05-10T08:50:58.515Z,49.36
2023-05-10T08:53:28.895Z,48.42
2023-05-10T08:55:56.514Z,48.74
2023-05-10T08:58:23.203Z,48.49
2023-05-10T09:00:51.968Z,48.26
2023-05-10T09:03:19.236Z,48.26
2023-05-10T09:05:46.097Z,47.86
2023-05-10T09:08:13.932Z,46.35
2023-05-10T09:10:41.200Z,46.89
2023-05-10T09:13:09.966Z,47.42
2023-05-10T09:15:36.594Z,47.70
2023-05-10T09:18:03.498Z,47.42
2023-05-10T09:20:30.115Z,47.28
2023-05-10T09:22:56.736Z,46.89
2023-05-10T09:25:23.635Z,47.79
2023-05-10T09:27:50.403Z,46.67
2023-05-10T09:30:18.965Z,45.45
2023-05-10T09:32:47.468Z,45.53
2023-05-10T09:35:16.093Z,45.80
2023-05-10T09:37:46.832Z,46.57
2023-05-10T09:40:24.182Z,44.65
2023-05-10T09:43:06.956Z,44.04
2023-05-10T09:45:37.728Z,43.34
2023-05-10T09:48:05.370Z,44.19
2023-05-10T09:50:32.118Z,44.46
2023-05-10T09:53:04.272Z,44.84
2023-05-10T09:55:36.887Z,43.98
2023-05-10T09:58:03.435Z,43.18
2023-05-10T10:00:36.830Z,43.33
2023-05-10T10:03:04.302Z,42.61
2023-05-10T10:05:34.481Z,42.09
2023-05-10T10:08:04.339Z,42.82
2023-05-10T10:10:32.157Z,43.23
2023-05-10T10:12:59.218Z,43.28
2023-05-10T10:15:26.197Z,42.81
2023-05-10T10:17:54.328Z,42.40
2023-05-10T10:20:23.526Z,42.09
2023-05-10T10:22:50.733Z,42.24
2023-05-10T10:25:19.058Z,40.03
2023-05-10T10:27:55.037Z,38.38
2023-05-10T10:30:36.544Z,38.28
2023-05-10T10:33:31.019Z,38.76
2023-05-10T10:36:00.255Z,38.31
2023-05-10T10:38:26.959Z,39.14
2023-05-10T10:41:03.757Z,39.92
2023-05-10T10:43:31.234Z,39.44
2023-05-10T10:46:13.700Z,40.00
2023-05-10T10:48:41.370Z,40.98
2023-05-10T10:51:08.736Z,42.88
2023-05-10T10:53:38.059Z,45.31
2023-05-10T10:56:11.659Z,47.60
2023-05-10T10:58:39.585Z,49.16
2023-05-10T11:01:17.834Z,49.57
2023-05-10T11:04:11.117Z,52.01
2023-05-10T11:06:37.751Z,51.85
2023-05-10T11:09:14.000Z,52.04
2023-05-10T11:11:56.208Z,52.14
2023-05-10T11:14:23.641Z,52.83
2023-05-10T11:16:50.388Z,52.88
2023-05-10T11:19:18.447Z,53.23
2023-05-10T11:22:12.081Z,53.45
2023-05-10T11:24:38.577Z,55.22
2023-05-10T11:27:06.319Z,55.52
2023-05-10T11:29:32.868Z,55.80
2023-05-10T11:32:00.505Z,56.11
2023-05-10T11:34:32.154Z,55.06
2023-05-10T11:36:59.124Z,54.31
2023-05-10T11:39:30.847Z,55.03
2023-05-10T11:41:58.401Z,55.11
2023-05-10T11:44:30.925Z,55.83
2023-05-10T11:47:00.773Z,56.14
2023-05-10T11:49:27.306Z,55.37
2023-05-10T11:51:53.833Z,55.25
2023-05-10T11:54:20.577Z,55.27
2023-05-10T11:56:47.136Z,55.38
2023-05-10T11:59:15.715Z,55.36
2023-05-10T12:01:42.606Z,54.87
2023-05-10T12:04:09.445Z,55.26
2023-05-10T12:06:41.902Z,54.21
2023-05-10T12:09:09.249Z,54.60
2023-05-10T12:11:42.536Z,54.77
2023-05-10T12:14:10.803Z,55.05
2023-05-10T12:16:37.423Z,55.41
2023-05-10T12:19:04.156Z,55.48
2023-05-10T12:21:34.321Z,55.43
2023-05-10T12:24:03.510Z,55.27
2023-05-10T12:26:30.899Z,55.93
2023-05-10T12:29:13.754Z,55.47
2023-05-10T12:31:58.205Z,55.86
2023-05-10T12:34:31.472Z,55.50
2023-05-10T12:36:58.150Z,55.79
2023-05-10T12:39:25.725Z,55.45
2023-05-10T12:41:53.136Z,55.64
2023-05-10T12:44:19.870Z,55.37
2023-05-10T12:46:46.546Z,55.94
2023-05-10T12:49:13.077Z,55.99
2023-05-10T12:51:39.608Z,55.77
2023-05-10T12:54:31.502Z,55.65
2023-05-10T12:56:58.118Z,55.42
2023-05-10T12:59:24.706Z,55.54
2023-05-10T13:01:51.240Z,55.61
2023-05-10T13:04:18.081Z,55.44
2023-05-10T13:06:44.721Z,56.13
2023-05-10T13:09:11.504Z,55.22
2023-05-10T13:11:38.492Z,55.45
2023-05-10T13:14:05.276Z,55.57
2023-05-10T13:16:33.391Z,55.56
2023-05-10T13:19:00.346Z,55.28
2023-05-10T13:21:27.600Z,55.81
2023-05-10T13:23:54.204Z,55.49
2023-05-10T13:26:21.075Z,55.02
2023-05-10T13:28:47.578Z,55.06
2023-05-10T13:31:14.151Z,55.60
2023-05-10T13:33:40.895Z,55.13
2023-05-10T13:36:07.608Z,55.53
2023-05-10T13:38:34.139Z,55.33
2023-05-10T13:41:00.961Z,55.43
2023-05-10T13:43:27.720Z,55.26
2023-05-10T13:45:54.308Z,54.67
2023-05-10T13:48:20.923Z,54.85
2023-05-10T13:50:48.001Z,55.16
2023-05-10T13:53:15.359Z,54.71
2023-05-10T13:55:42.264Z,55.19
2023-05-10T13:58:08.793Z,55.34
2023-05-10T14:00:35.328Z,55.67
2023-05-10T14:03:02.044Z,55.44
2023-05-10T14:05:28.874Z,55.67
2023-05-10T14:07:55.855Z,55.62
2023-05-10T14:10:22.474Z,55.88
2023-05-10T14:12:49.138Z,56.10
2023-05-10T14:15:15.858Z,55.70
2023-05-10T14:17:42.616Z,55.99
2023-05-10T14:20:09.685Z,56.09
2023-05-10T14:22:36.423Z,56.08
2023-05-10T14:25:03.067Z,55.75
2023-05-10T14:27:30.041Z,55.76
2023-05-10T14:29:56.628Z,55.43
2023-05-10T14:32:23.519Z,55.90
2023-05-10T14:34:50.053Z,55.06
2023-05-10T14:37:17.189Z,55.57
2023-05-10T14:39:43.770Z,54.95
2023-05-10T14:42:10.295Z,55.12
2023-05-10T14:44:36.963Z,55.32
2023-05-10T14:47:03.485Z,55.28
2023-05-10T14:49:30.167Z,55.76
2023-05-10T14:51:56.930Z,55.48
2023-05-10T14:54:23.527Z,55.90
2023-05-10T14:56:50.959Z,56.05
2023-05-10T14:59:17.807Z,55.78
2023-05-10T15:01:45.181Z,55.08
2023-05-10T15:04:13.863Z,55.57
2023-05-10T15:06:40.844Z,56.66
2023-05-10T15:09:07.407Z,56.05
2023-05-10T15:11:34.038Z,55.83
2023-05-10T15:14:00.787Z,55.75
2023-05-10T15:16:27.566Z,55.45
2023-05-10T15:18:54.173Z,55.96
2023-05-10T15:21:20.771Z,55.99
2023-05-10T15:23:47.433Z,55.64
2023-05-10T15:26:13.957Z,56.18
2023-05-10T15:28:40.696Z,55.29
2023-05-10T15:31:07.322Z,55.69
2023-05-10T15:33:33.885Z,56.32
2023-05-10T15:36:00.436Z,55.87
2023-05-10T15:38:27.027Z,55.80
2023-05-10T15:40:58.476Z,55.54
2023-05-10T15:43:25.182Z,55.53
2023-05-10T15:45:51.977Z,55.71
2023-05-10T15:48:18.480Z,55.05
2023-05-10T15:50:45.261Z,55.28
2023-05-10T15:53:11.817Z,55.50
2023-05-10T15:55:38.371Z,55.46
2023-05-10T15:58:04.935Z,55.27
2023-05-10T16:00:31.614Z,55.47
2023-05-10T16:02:58.323Z,56.00
2023-05-10T16:05:27.359Z,56.95
2023-05-10T16:07:54.942Z,55.69
2023-05-10T16:10:21.491Z,55.75
2023-05-10T16:12:48.186Z,55.81
2023-05-10T16:15:14.935Z,55.62
2023-05-10T16:17:41.907Z,55.32
2023-05-10T16:20:08.856Z,55.24
2023-05-10T16:22:35.805Z,55.43
2023-05-10T16:25:02.418Z,55.60
2023-05-10T16:27:30.349Z,55.72
2023-05-10T16:29:56.999Z,55.86
2023-05-10T16:32:23.642Z,56.39
2023-05-10T16:34:50.381Z,55.73
2023-05-10T16:37:17.064Z,55.97
2023-05-10T16:39:43.824Z,55.81
2023-05-10T16:42:10.352Z,55.93
2023-05-10T16:44:36.958Z,55.80
2023-05-10T16:47:03.490Z,55.70
2023-05-10T16:49:30.012Z,55.79
2023-05-10T16:51:56.838Z,55.80
2023-05-10T16:54:23.508Z,56.02
2023-05-10T16:56:50.077Z,55.71
2023-05-10T16:59:17.496Z,55.32
2023-05-10T17:01:44.845Z,55.45
2023-05-10T17:04:11.525Z,55.74
2023-05-10T17:06:38.486Z,55.81
2023-05-10T17:09:05.735Z,55.98
2023-05-10T17:11:32.659Z,55.83
2023-05-10T17:13:59.648Z,55.26
2023-05-10T17:16:26.902Z,55.39
2023-05-10T17:18:53.538Z,55.58
2023-05-10T17:21:20.363Z,55.02
2023-05-10T17:23:46.871Z,54.85
2023-05-10T17:26:13.436Z,55.09
2023-05-10T17:28:39.947Z,55.10
2023-05-10T17:31:06.681Z,54.79
2023-05-10T17:33:33.280Z,55.27
2023-05-10T17:35:59.804Z,54.96
2023-05-10T17:38:26.336Z,55.03
2023-05-10T17:40:52.884Z,54.85
2023-05-10T17:43:20.138Z,55.22
2023-05-10T17:45:49.308Z,54.79
2023-05-10T17:48:15.885Z,54.78
2023-05-10T17:50:43.439Z,54.55
2023-05-10T17:53:10.411Z,54.63
2023-05-10T17:55:40.828Z,54.99
2023-05-10T17:58:07.527Z,55.34
2023-05-10T18:00:35.821Z,54.62
2023-05-10T18:03:03.289Z,54.84
2023-05-10T18:05:30.327Z,55.45
2023-05-10T18:07:57.047Z,55.56
2023-05-10T18:10:24.844Z,55.16
2023-05-10T18:12:52.295Z,55.13
2023-05-10T18:15:18.921Z,55.29
2023-05-10T18:17:45.568Z,54.83
2023-05-10T18:20:12.954Z,55.19
2023-05-10T18:22:39.876Z,55.23
2023-05-10T18:25:07.023Z,54.74
2023-05-10T18:27:34.288Z,55.13
2023-05-10T18:30:00.815Z,54.56
2023-05-10T18:32:27.971Z,54.58
2023-05-10T18:34:55.794Z,55.05
2023-05-10T18:37:22.830Z,54.93
2023-05-10T18:39:49.859Z,54.85
2023-05-10T18:42:16.428Z,55.23
2023-05-10T18:44:42.938Z,55.25
2023-05-10T18:47:09.444Z,54.94
2023-05-10T18:49:35.964Z,55.21
2023-05-10T18:52:02.497Z,54.80
2023-05-10T18:54:29.930Z,54.69
2023-05-10T18:56:58.455Z,54.75
2023-05-10T18:59:25.597Z,54.37
2023-05-10T19:01:53.170Z,54.64
2023-05-10T19:04:21.783Z,54.45
2023-05-10T19:06:48.421Z,54.51
2023-05-10T19:09:14.979Z,54.08
2023-05-10T19:11:43.137Z,54.49
2023-05-10T19:14:09.750Z,54.59
2023-05-10T19:16:37.062Z,54.50
2023-05-10T19:19:03.998Z,54.46
2023-05-10T19:21:31.508Z,54.33
2023-05-10T19:23:58.769Z,54.38
2023-05-10T19:26:25.287Z,54.11
2023-05-10T19:28:52.449Z,53.86
2023-05-10T19:31:20.124Z,54.51
2023-05-10T19:33:47.178Z,54.48
2023-05-10T19:36:13.802Z,54.78
2023-05-10T19:38:40.598Z,54.41
2023-05-10T19:41:07.204Z,54.24
2023-05-10T19:43:37.625Z,54.23
2023-05-10T19:46:04.540Z,54.68
2023-05-10T19:48:31.664Z,54.39
2023-05-10T19:51:03.366Z,53.87
2023-05-10T19:53:30.107Z,53.73
2023-05-10T19:55:56.717Z,53.90
2023-05-10T19:58:23.555Z,54.04
2023-05-10T20:00:50.152Z,54.72
2023-05-10T20:03:16.804Z,54.51
2023-05-10T20:05:43.427Z,54.74
2023-05-10T20:08:10.025Z,54.94
2023-05-10T20:10:36.596Z,54.61
2023-05-10T20:13:03.130Z,54.72
2023-05-10T20:15:29.848Z,54.81
2023-05-10T20:17:56.605Z,54.24
2023-05-10T20:20:23.592Z,54.25
2023-05-10T20:22:50.608Z,53.92
2023-05-10T20:25:18.355Z,54.47
2023-05-10T20:27:45.407Z,54.43
2023-05-10T20:30:12.296Z,54.62
2023-05-10T20:32:39.269Z,54.17
2023-05-10T20:35:07.043Z,54.40
2023-05-10T20:37:33.892Z,53.75
2023-05-10T20:40:00.506Z,54.32
2023-05-10T20:42:27.130Z,54.03
2023-05-10T20:44:53.688Z,54.31
2023-05-10T20:47:20.362Z,53.91
2023-05-10T20:49:46.968Z,54.13
2023-05-10T20:52:13.789Z,53.75
2023-05-10T20:54:40.642Z,54.25
2023-05-10T20:57:07.432Z,54.26
2023-05-10T20:59:34.162Z,53.98
2023-05-10T21:02:01.151Z,54.27
2023-05-10T21:04:27.936Z,54.48
2023-05-10T21:06:56.048Z,53.89
2023-05-10T21:09:22.797Z,54.29
2023-05-10T21:11:50.694Z,53.89
2023-05-10T21:14:17.221Z,54.16
2023-05-10T21:16:43.873Z,53.77
2023-05-10T21:19:10.531Z,54.27
2023-05-10T21:21:37.180Z,53.66
2023-05-10T21:24:04.102Z,53.86
2023-05-10T21:26:31.293Z,53.76
2023-05-10T21:28:59.190Z,53.74
2023-05-10T21:31:25.993Z,54.03
2023-05-10T21:33:52.595Z,53.55
2023-05-10T21:36:19.247Z,53.83
2023-05-10T21:38:46.365Z,53.83
2023-05-10T21:41:12.975Z,53.91
2023-05-10T21:43:39.473Z,53.86
2023-05-10T21:46:07.125Z,54.01
2023-05-10T21:48:33.799Z,54.50
2023-05-10T21:51:01.524Z,54.21
2023-05-10T21:53:28.832Z,53.94
2023-05-10T21:55:56.229Z,53.95
2023-05-10T21:58:23.051Z,54.03
2023-05-10T22:00:49.755Z,53.98
2023-05-10T22:03:16.419Z,54.10
2023-05-10T22:05:43.088Z,54.53
2023-05-10T22:08:09.627Z,54.06
2023-05-10T22:10:36.227Z,53.91
2023-05-10T22:13:03.169Z,53.74
2023-05-10T22:15:31.144Z,53.80
2023-05-10T22:17:57.884Z,53.90
2023-05-10T22:20:24.448Z,53.84
2023-05-10T22:22:51.189Z,53.93
2023-05-10T22:25:17.825Z,54.06
2023-05-10T22:27:44.420Z,54.02
2023-05-10T22:30:11.323Z,54.38
2023-05-10T22:32:38.078Z,54.03
2023-05-10T22:35:04.912Z,54.47
2023-05-10T22:37:31.522Z,54.43
2023-05-10T22:39:58.051Z,54.59
2023-05-10T22:42:24.602Z,54.37
2023-05-10T22:44:51.288Z,54.23
2023-05-10T22:47:17.819Z,54.62
2023-05-10T22:49:44.344Z,54.48
2023-05-10T22:52:11.008Z,54.69
2023-05-10T22:54:37.548Z,54.76
2023-05-10T22:57:04.491Z,54.64
2023-05-10T22:59:31.529Z,55.15
2023-05-10T23:01:58.269Z,54.27
2023-05-10T23:04:25.027Z,54.44
2023-05-10T23:06:51.772Z,54.23
2023-05-10T23:09:18.459Z,54.81
2023-05-10T23:11:45.025Z,54.74
2023-05-10T23:14:11.859Z,54.22
2023-05-10T23:16:38.456Z,54.90
2023-05-10T23:19:05.146Z,54.29
2023-05-10T23:21:32.281Z,54.70
2023-05-10T23:23:59.085Z,54.60
2023-05-10T23:26:25.813Z,54.21
2023-05-10T23:28:52.429Z,54.46
2023-05-10T23:31:18.972Z,54.70
2023-05-10T23:33:45.573Z,54.14
2023-05-10T23:36:12.345Z,54.66
2023-05-10T23:38:39.585Z,54.52
2023-05-10T23:41:06.187Z,54.41
2023-05-10T23:43:32.817Z,54.94
2023-05-10T23:45:59.536Z,55.03
2023-05-10T23:48:26.161Z,54.80
2023-05-10T23:50:52.701Z,55.44
2023-05-10T23:53:19.240Z,54.74
2023-05-10T23:55:45.834Z,54.80
2023-05-10T23:58:12.467Z,54.79
